sensor_id;sensor_type;location;lat;lon;timestamp;pressure;altitude;pressure_sealevel;temperature;humidity
72721;BME280;60835;50.974;10.322;2023-03-15T00:01:47;97484.69;;;3.11;100.00
72721;BME280;60835;50.974;10.322;2023-03-15T00:04:17;97470.59;;;2.93;100.00
72721;BME280;60835;50.974;10.322;2023-03-15T00:06:44;97491.28;;;3.05;100.00
72721;BME280;60835;50.974;10.322;2023-03-15T00:09:11;97492.13;;;3.16;100.00
72721;BME280;60835;50.974;10.322;2023-03-15T00:11:38;97497.25;;;3.17;100.00
72721;BME280;60835;50.974;10.322;2023-03-15T00:14:05;97495.66;;;3.05;100.00
72721;BME280;60835;50.974;10.322;2023-03-15T00:16:32;97508.38;;;3.10;100.00
72721;BME280;60835;50.974;10.322;2023-03-15T00:18:59;97506.13;;;3.05;100.00
72721;BME280;60835;50.974;10.322;2023-03-15T00:21:26;97522.06;;;3.02;100.00
72721;BME280;60835;50.974;10.322;2023-03-15T00:23:55;97506.53;;;3.00;100.00
72721;BME280;60835;50.974;10.322;2023-03-15T00:26:25;97524.66;;;3.02;100.00
72721;BME280;60835;50.974;10.322;2023-03-15T00:28:52;97468.28;;;2.69;100.00
72721;BME280;60835;50.974;10.322;2023-03-15T00:31:21;97468.09;;;2.61;100.00
72721;BME280;60835;50.974;10.322;2023-03-15T00:33:48;97523.97;;;3.00;100.00
72721;BME280;60835;50.974;10.322;2023-03-15T00:36:15;97487.25;;;2.71;100.00
72721;BME280;60835;50.974;10.322;2023-03-15T00:38:42;97489.56;;;2.65;100.00
72721;BME280;60835;50.974;10.322;2023-03-15T00:41:14;97528.56;;;2.87;100.00
72721;BME280;60835;50.974;10.322;2023-03-15T00:43:42;97532.03;;;2.87;100.00
72721;BME280;60835;50.974;10.322;2023-03-15T00:46:09;97530.50;;;2.85;100.00
72721;BME280;60835;50.974;10.322;2023-03-15T00:48:36;97539.09;;;2.76;100.00
72721;BME280;60835;50.974;10.322;2023-03-15T00:51:09;97522.66;;;2.64;100.00
72721;BME280;60835;50.974;10.322;2023-03-15T00:53:37;97541.41;;;2.69;100.00
72721;BME280;60835;50.974;10.322;2023-03-15T00:56:14;97546.28;;;2.63;100.00
72721;BME280;60835;50.974;10.322;2023-03-15T00:58:41;97547.00;;;2.65;100.00
72721;BME280;60835;50.974;10.322;2023-03-15T01:01:17;97552.72;;;2.59;100.00
72721;BME280;60835;50.974;10.322;2023-03-15T01:03:44;97544.88;;;2.59;100.00
72721;BME280;60835;50.974;10.322;2023-03-15T01:06:17;97540.66;;;2.46;100.00
72721;BME280;60835;50.974;10.322;2023-03-15T01:08:44;97551.63;;;2.40;100.00
72721;BME280;60835;50.974;10.322;2023-03-15T01:11:14;97544.50;;;2.42;100.00
72721;BME280;60835;50.974;10.322;2023-03-15T01:13:41;97552.13;;;2.34;100.00
72721;BME280;60835;50.974;10.322;2023-03-15T01:16:10;97541.34;;;2.28;100.00
72721;BME280;60835;50.974;10.322;2023-03-15T01:18:37;97543.50;;;2.23;100.00
72721;BME280;60835;50.974;10.322;2023-03-15T01:21:09;97546.00;;;2.24;100.00
72721;BME280;60835;50.974;10.322;2023-03-15T01:23:36;97551.47;;;2.21;100.00
72721;BME280;60835;50.974;10.322;2023-03-15T01:26:05;97553.38;;;2.19;100.00
72721;BME280;60835;50.974;10.322;2023-03-15T01:28:32;97547.19;;;2.20;100.00
72721;BME280;60835;50.974;10.322;2023-03-15T01:30:59;97542.25;;;2.06;100.00
72721;BME280;60835;50.974;10.322;2023-03-15T01:33:26;97551.97;;;2.04;100.00
72721;BME280;60835;50.974;10.322;2023-03-15T01:36:01;97552.69;;;2.06;100.00
72721;BME280;60835;50.974;10.322;2023-03-15T01:38:29;97555.91;;;1.99;100.00
72721;BME280;60835;50.974;10.322;2023-03-15T01:40:56;97551.28;;;2.02;100.00
72721;BME280;60835;50.974;10.322;2023-03-15T01:43:24;97568.59;;;2.03;100.00
72721;BME280;60835;50.974;10.322;2023-03-15T01:46:01;97568.47;;;1.94;100.00
72721;BME280;60835;50.974;10.322;2023-03-15T01:48:44;97562.47;;;1.93;100.00
72721;BME280;60835;50.974;10.322;2023-03-15T01:51:35;97572.06;;;1.93;100.00
72721;BME280;60835;50.974;10.322;2023-03-15T01:54:09;97565.53;;;1.98;100.00
72721;BME280;60835;50.974;10.322;2023-03-15T01:56:42;97573.84;;;1.92;100.00
72721;BME280;60835;50.974;10.322;2023-03-15T01:59:15;97569.31;;;1.94;100.00
72721;BME280;60835;50.974;10.322;2023-03-15T02:01:42;97571.59;;;1.88;100.00
72721;BME280;60835;50.974;10.322;2023-03-15T02:04:16;97572.66;;;1.85;100.00
72721;BME280;60835;50.974;10.322;2023-03-15T02:06:44;97570.28;;;1.82;100.00
72721;BME280;60835;50.974;10.322;2023-03-15T02:09:14;97573.25;;;1.77;100.00
72721;BME280;60835;50.974;10.322;2023-03-15T02:11:42;97559.66;;;1.74;100.00
72721;BME280;60835;50.974;10.322;2023-03-15T02:14:13;97569.84;;;1.77;100.00
72721;BME280;60835;50.974;10.322;2023-03-15T02:16:41;97582.13;;;1.75;100.00
72721;BME280;60835;50.974;10.322;2023-03-15T02:19:16;97574.09;;;1.78;100.00
72721;BME280;60835;50.974;10.322;2023-03-15T02:22:17;97579.28;;;1.78;100.00
72721;BME280;60835;50.974;10.322;2023-03-15T02:24:56;97579.06;;;1.81;100.00
72721;BME280;60835;50.974;10.322;2023-03-15T02:27:32;97530.06;;;1.31;100.00
72721;BME280;60835;50.974;10.322;2023-03-15T02:30:00;97586.19;;;1.57;100.00
72721;BME280;60835;50.974;10.322;2023-03-15T02:32:29;97585.47;;;1.44;100.00
72721;BME280;60835;50.974;10.322;2023-03-15T02:34:56;97600.16;;;1.34;100.00
72721;BME280;60835;50.974;10.322;2023-03-15T02:37:23;97602.31;;;1.29;100.00
72721;BME280;60835;50.974;10.322;2023-03-15T02:39:50;97610.81;;;1.19;100.00
72721;BME280;60835;50.974;10.322;2023-03-15T02:42:16;97609.50;;;1.14;100.00
72721;BME280;60835;50.974;10.322;2023-03-15T02:44:48;97622.16;;;1.07;100.00
72721;BME280;60835;50.974;10.322;2023-03-15T02:47:24;97643.03;;;1.18;100.00
72721;BME280;60835;50.974;10.322;2023-03-15T02:49:54;97625.28;;;1.23;100.00
72721;BME280;60835;50.974;10.322;2023-03-15T02:52:21;97622.19;;;1.18;100.00
72721;BME280;60835;50.974;10.322;2023-03-15T02:54:48;97618.28;;;1.13;100.00
72721;BME280;60835;50.974;10.322;2023-03-15T02:57:17;97634.97;;;1.10;100.00
72721;BME280;60835;50.974;10.322;2023-03-15T02:59:44;97655.31;;;1.05;100.00
72721;BME280;60835;50.974;10.322;2023-03-15T03:02:11;97656.50;;;1.12;100.00
72721;BME280;60835;50.974;10.322;2023-03-15T03:04:38;97655.47;;;1.26;100.00
72721;BME280;60835;50.974;10.322;2023-03-15T03:07:05;97656.75;;;1.20;100.00
72721;BME280;60835;50.974;10.322;2023-03-15T03:09:31;97655.34;;;1.16;100.00
72721;BME280;60835;50.974;10.322;2023-03-15T03:11:58;97665.50;;;1.19;100.00
72721;BME280;60835;50.974;10.322;2023-03-15T03:14:31;97647.75;;;1.24;100.00
72721;BME280;60835;50.974;10.322;2023-03-15T03:16:58;97649.66;;;1.22;100.00
72721;BME280;60835;50.974;10.322;2023-03-15T03:19:24;97656.53;;;1.23;100.00
72721;BME280;60835;50.974;10.322;2023-03-15T03:21:52;97659.41;;;1.32;100.00
72721;BME280;60835;50.974;10.322;2023-03-15T03:24:20;97662.94;;;1.31;100.00
72721;BME280;60835;50.974;10.322;2023-03-15T03:26:46;97665.09;;;1.37;100.00
72721;BME280;60835;50.974;10.322;2023-03-15T03:29:14;97685.94;;;1.37;100.00
72721;BME280;60835;50.974;10.322;2023-03-15T03:31:42;97691.38;;;1.34;100.00
72721;BME280;60835;50.974;10.322;2023-03-15T03:34:09;97688.19;;;1.41;100.00
72721;BME280;60835;50.974;10.322;2023-03-15T03:36:41;97689.41;;;1.48;100.00
72721;BME280;60835;50.974;10.322;2023-03-15T03:39:09;97680.00;;;1.46;100.00
72721;BME280;60835;50.974;10.322;2023-03-15T03:41:36;97670.09;;;1.51;100.00
72721;BME280;60835;50.974;10.322;2023-03-15T03:44:03;97659.19;;;1.57;100.00
72721;BME280;60835;50.974;10.322;2023-03-15T03:46:30;97659.19;;;1.57;100.00
72721;BME280;60835;50.974;10.322;2023-03-15T03:48:56;97659.66;;;1.62;100.00
72721;BME280;60835;50.974;10.322;2023-03-15T03:51:23;97670.09;;;1.73;100.00
72721;BME280;60835;50.974;10.322;2023-03-15T03:53:50;97673.91;;;1.69;100.00
72721;BME280;60835;50.974;10.322;2023-03-15T03:56:16;97650.66;;;1.55;100.00
72721;BME280;60835;50.974;10.322;2023-03-15T03:58:43;97660.38;;;1.64;100.00
72721;BME280;60835;50.974;10.322;2023-03-15T04:01:09;97667.25;;;1.65;100.00
72721;BME280;60835;50.974;10.322;2023-03-15T04:03:37;97673.28;;;1.65;100.00
72721;BME280;60835;50.974;10.322;2023-03-15T04:06:03;97674.72;;;1.69;100.00
72721;BME280;60835;50.974;10.322;2023-03-15T04:08:34;97687.88;;;1.68;100.00
72721;BME280;60835;50.974;10.322;2023-03-15T04:11:00;97676.00;;;1.75;100.00
72721;BME280;60835;50.974;10.322;2023-03-15T04:13:29;97689.31;;;1.72;100.00
72721;BME280;60835;50.974;10.322;2023-03-15T04:15:59;97684.31;;;1.69;100.00
72721;BME280;60835;50.974;10.322;2023-03-15T04:18:27;97691.66;;;1.75;100.00
72721;BME280;60835;50.974;10.322;2023-03-15T04:20:54;97692.00;;;1.70;100.00
72721;BME280;60835;50.974;10.322;2023-03-15T04:23:21;97707.19;;;1.76;100.00
72721;BME280;60835;50.974;10.322;2023-03-15T04:25:50;97672.34;;;1.55;100.00
72721;BME280;60835;50.974;10.322;2023-03-15T04:28:18;97704.59;;;1.76;100.00
72721;BME280;60835;50.974;10.322;2023-03-15T04:30:47;97693.31;;;1.65;100.00
72721;BME280;60835;50.974;10.322;2023-03-15T04:33:14;97714.44;;;1.84;100.00
72721;BME280;60835;50.974;10.322;2023-03-15T04:35:41;97705.53;;;1.75;100.00
72721;BME280;60835;50.974;10.322;2023-03-15T04:38:08;97717.50;;;1.78;100.00
72721;BME280;60835;50.974;10.322;2023-03-15T04:40:34;97697.94;;;1.72;100.00
72721;BME280;60835;50.974;10.322;2023-03-15T04:43:03;97710.16;;;1.72;100.00
72721;BME280;60835;50.974;10.322;2023-03-15T04:45:31;97722.25;;;1.73;100.00
72721;BME280;60835;50.974;10.322;2023-03-15T04:48:00;97725.81;;;1.72;100.00
72721;BME280;60835;50.974;10.322;2023-03-15T04:50:27;97732.19;;;1.68;100.00
72721;BME280;60835;50.974;10.322;2023-03-15T04:52:56;97726.13;;;1.56;100.00
72721;BME280;60835;50.974;10.322;2023-03-15T04:55:23;97759.44;;;1.75;100.00
72721;BME280;60835;50.974;10.322;2023-03-15T04:57:49;97767.03;;;1.78;100.00
72721;BME280;60835;50.974;10.322;2023-03-15T05:00:16;97764.91;;;1.83;100.00
72721;BME280;60835;50.974;10.322;2023-03-15T05:02:47;97769.31;;;1.71;100.00
72721;BME280;60835;50.974;10.322;2023-03-15T05:05:23;97783.91;;;1.85;100.00
72721;BME280;60835;50.974;10.322;2023-03-15T05:07:50;97768.91;;;1.65;100.00
72721;BME280;60835;50.974;10.322;2023-03-15T05:10:17;97797.75;;;1.85;100.00
72721;BME280;60835;50.974;10.322;2023-03-15T05:12:44;97803.72;;;1.88;100.00
72721;BME280;60835;50.974;10.322;2023-03-15T05:15:11;97815.22;;;1.85;100.00
72721;BME280;60835;50.974;10.322;2023-03-15T05:17:38;97804.25;;;1.69;100.00
72721;BME280;60835;50.974;10.322;2023-03-15T05:20:05;97819.19;;;1.78;100.00
72721;BME280;60835;50.974;10.322;2023-03-15T05:22:38;97840.06;;;1.78;100.00
72721;BME280;60835;50.974;10.322;2023-03-15T05:25:06;97831.44;;;1.89;100.00
72721;BME280;60835;50.974;10.322;2023-03-15T05:27:33;97842.56;;;1.79;100.00
72721;BME280;60835;50.974;10.322;2023-03-15T05:30:00;97846.38;;;1.87;100.00
72721;BME280;60835;50.974;10.322;2023-03-15T05:32:33;97825.88;;;1.82;100.00
72721;BME280;60835;50.974;10.322;2023-03-15T05:35:00;97838.19;;;1.80;100.00
72721;BME280;60835;50.974;10.322;2023-03-15T05:37:27;97843.91;;;1.85;100.00
72721;BME280;60835;50.974;10.322;2023-03-15T05:39:54;97840.81;;;1.80;100.00
72721;BME280;60835;50.974;10.322;2023-03-15T05:42:21;97847.66;;;1.81;100.00
72721;BME280;60835;50.974;10.322;2023-03-15T05:44:55;97859.63;;;1.83;100.00
72721;BME280;60835;50.974;10.322;2023-03-15T05:47:22;97850.56;;;1.65;100.00
72721;BME280;60835;50.974;10.322;2023-03-15T05:49:49;97882.28;;;1.83;100.00
72721;BME280;60835;50.974;10.322;2023-03-15T05:52:17;97904.31;;;1.79;100.00
72721;BME280;60835;50.974;10.322;2023-03-15T05:54:44;97909.75;;;1.76;100.00
72721;BME280;60835;50.974;10.322;2023-03-15T05:57:10;97949.81;;;1.75;100.00
72721;BME280;60835;50.974;10.322;2023-03-15T05:59:37;97968.59;;;1.80;100.00
72721;BME280;60835;50.974;10.322;2023-03-15T06:02:04;97966.13;;;1.66;100.00
72721;BME280;60835;50.974;10.322;2023-03-15T06:04:30;97997.00;;;1.72;100.00
72721;BME280;60835;50.974;10.322;2023-03-15T06:06:57;98005.69;;;1.60;100.00
72721;BME280;60835;50.974;10.322;2023-03-15T06:09:23;98040.44;;;1.48;100.00
72721;BME280;60835;50.974;10.322;2023-03-15T06:11:50;98051.09;;;1.45;100.00
72721;BME280;60835;50.974;10.322;2023-03-15T06:14:17;98048.91;;;1.39;100.00
72721;BME280;60835;50.974;10.322;2023-03-15T06:16:44;98040.69;;;1.32;100.00
72721;BME280;60835;50.974;10.322;2023-03-15T06:19:11;98022.31;;;1.34;100.00
72721;BME280;60835;50.974;10.322;2023-03-15T06:21:38;98016.47;;;1.30;100.00
72721;BME280;60835;50.974;10.322;2023-03-15T06:24:05;98001.81;;;1.29;100.00
72721;BME280;60835;50.974;10.322;2023-03-15T06:26:31;97982.72;;;1.29;100.00
72721;BME280;60835;50.974;10.322;2023-03-15T06:28:58;97978.44;;;1.40;100.00
72721;BME280;60835;50.974;10.322;2023-03-15T06:31:25;97954.66;;;1.45;100.00
72721;BME280;60835;50.974;10.322;2023-03-15T06:33:51;97943.25;;;1.46;100.00
72721;BME280;60835;50.974;10.322;2023-03-15T06:36:18;97933.66;;;1.46;100.00
72721;BME280;60835;50.974;10.322;2023-03-15T06:38:44;97918.44;;;1.53;100.00
72721;BME280;60835;50.974;10.322;2023-03-15T06:41:11;97896.03;;;1.50;100.00
72721;BME280;60835;50.974;10.322;2023-03-15T06:43:40;97876.72;;;1.53;100.00
72721;BME280;60835;50.974;10.322;2023-03-15T06:46:07;97848.16;;;1.51;100.00
72721;BME280;60835;50.974;10.322;2023-03-15T06:48:34;97847.94;;;1.54;100.00
72721;BME280;60835;50.974;10.322;2023-03-15T06:51:01;97832.69;;;1.61;100.00
72721;BME280;60835;50.974;10.322;2023-03-15T06:53:29;97814.16;;;1.53;100.00
72721;BME280;60835;50.974;10.322;2023-03-15T06:55:56;97763.63;;;1.32;100.00
72721;BME280;60835;50.974;10.322;2023-03-15T06:58:23;97789.75;;;1.54;100.00
72721;BME280;60835;50.974;10.322;2023-03-15T07:00:49;97789.66;;;1.55;100.00
72721;BME280;60835;50.974;10.322;2023-03-15T07:03:16;97777.34;;;1.68;100.00
72721;BME280;60835;50.974;10.322;2023-03-15T07:05:44;97767.38;;;1.62;100.00
72721;BME280;60835;50.974;10.322;2023-03-15T07:08:11;97751.41;;;1.78;100.00
72721;BME280;60835;50.974;10.322;2023-03-15T07:10:38;97731.03;;;1.72;100.00
72721;BME280;60835;50.974;10.322;2023-03-15T07:13:04;97735.03;;;1.76;100.00
72721;BME280;60835;50.974;10.322;2023-03-15T07:15:32;97730.53;;;1.78;100.00
72721;BME280;60835;50.974;10.322;2023-03-15T07:17:59;97711.09;;;1.60;100.00
72721;BME280;60835;50.974;10.322;2023-03-15T07:20:36;97727.47;;;1.84;100.00
72721;BME280;60835;50.974;10.322;2023-03-15T07:23:03;97722.28;;;1.95;100.00
72721;BME280;60835;50.974;10.322;2023-03-15T07:25:30;97725.56;;;1.86;100.00
72721;BME280;60835;50.974;10.322;2023-03-15T07:27:58;97728.44;;;2.05;100.00
72721;BME280;60835;50.974;10.322;2023-03-15T07:30:25;97719.78;;;2.16;100.00
72721;BME280;60835;50.974;10.322;2023-03-15T07:32:51;97716.09;;;2.07;100.00
72721;BME280;60835;50.974;10.322;2023-03-15T07:35:18;97714.91;;;2.22;100.00
72721;BME280;60835;50.974;10.322;2023-03-15T07:37:45;97729.97;;;2.19;100.00
72721;BME280;60835;50.974;10.322;2023-03-15T07:40:12;97732.13;;;2.14;100.00
72721;BME280;60835;50.974;10.322;2023-03-15T07:42:39;97750.72;;;2.20;100.00
72721;BME280;60835;50.974;10.322;2023-03-15T07:45:07;97706.59;;;2.17;100.00
72721;BME280;60835;50.974;10.322;2023-03-15T07:47:48;97737.66;;;2.96;100.00
72721;BME280;60835;50.974;10.322;2023-03-15T07:50:14;97733.66;;;3.13;100.00
72721;BME280;60835;50.974;10.322;2023-03-15T07:52:42;97735.34;;;3.35;100.00
72721;BME280;60835;50.974;10.322;2023-03-15T07:55:09;97766.44;;;4.60;100.00
72721;BME280;60835;50.974;10.322;2023-03-15T07:57:36;97776.34;;;5.25;100.00
72721;BME280;60835;50.974;10.322;2023-03-15T08:00:03;97797.19;;;5.08;100.00
72721;BME280;60835;50.974;10.322;2023-03-15T08:02:30;97810.41;;;4.57;100.00
72721;BME280;60835;50.974;10.322;2023-03-15T08:04:57;97823.59;;;3.95;100.00
72721;BME280;60835;50.974;10.322;2023-03-15T08:07:24;97801.03;;;3.41;100.00
72721;BME280;60835;50.974;10.322;2023-03-15T08:09:50;97848.19;;;3.51;100.00
72721;BME280;60835;50.974;10.322;2023-03-15T08:12:17;97865.19;;;3.45;100.00
72721;BME280;60835;50.974;10.322;2023-03-15T08:14:43;97866.53;;;3.40;100.00
72721;BME280;60835;50.974;10.322;2023-03-15T08:17:10;97884.06;;;3.06;100.00
72721;BME280;60835;50.974;10.322;2023-03-15T08:19:38;97886.66;;;3.28;100.00
72721;BME280;60835;50.974;10.322;2023-03-15T08:22:05;97896.66;;;3.12;100.00
72721;BME280;60835;50.974;10.322;2023-03-15T08:24:32;97892.22;;;3.24;100.00
72721;BME280;60835;50.974;10.322;2023-03-15T08:26:58;97894.41;;;3.50;100.00
72721;BME280;60835;50.974;10.322;2023-03-15T08:29:25;97894.75;;;3.25;100.00
72721;BME280;60835;50.974;10.322;2023-03-15T08:31:51;97898.94;;;4.12;100.00
72721;BME280;60835;50.974;10.322;2023-03-15T08:34:18;97902.47;;;3.90;100.00
72721;BME280;60835;50.974;10.322;2023-03-15T08:36:48;97908.84;;;3.77;100.00
72721;BME280;60835;50.974;10.322;2023-03-15T08:39:18;97923.41;;;3.58;100.00
72721;BME280;60835;50.974;10.322;2023-03-15T08:41:44;97922.47;;;3.48;100.00
72721;BME280;60835;50.974;10.322;2023-03-15T08:44:13;97928.63;;;3.58;100.00
72721;BME280;60835;50.974;10.322;2023-03-15T08:46:40;97939.56;;;3.52;100.00
72721;BME280;60835;50.974;10.322;2023-03-15T08:49:07;97940.53;;;3.62;100.00
72721;BME280;60835;50.974;10.322;2023-03-15T08:51:33;97932.66;;;3.20;100.00
72721;BME280;60835;50.974;10.322;2023-03-15T08:54:00;97909.50;;;2.93;100.00
72721;BME280;60835;50.974;10.322;2023-03-15T08:56:29;97956.00;;;3.54;100.00
72721;BME280;60835;50.974;10.322;2023-03-15T08:58:57;97958.50;;;3.88;100.00
72721;BME280;60835;50.974;10.322;2023-03-15T09:01:24;97967.78;;;3.92;100.00
72721;BME280;60835;50.974;10.322;2023-03-15T09:03:50;97950.34;;;4.13;100.00
72721;BME280;60835;50.974;10.322;2023-03-15T09:06:17;97928.44;;;3.39;100.00
72721;BME280;60835;50.974;10.322;2023-03-15T09:08:43;97971.78;;;4.27;100.00
72721;BME280;60835;50.974;10.322;2023-03-15T09:11:10;97967.16;;;4.31;100.00
72721;BME280;60835;50.974;10.322;2023-03-15T09:13:36;97972.91;;;4.14;100.00
72721;BME280;60835;50.974;10.322;2023-03-15T09:16:03;97977.78;;;3.87;100.00
72721;BME280;60835;50.974;10.322;2023-03-15T09:18:32;97993.47;;;4.18;100.00
72721;BME280;60835;50.974;10.322;2023-03-15T09:20:59;97992.50;;;4.30;100.00
72721;BME280;60835;50.974;10.322;2023-03-15T09:23:27;98001.84;;;4.44;100.00
72721;BME280;60835;50.974;10.322;2023-03-15T09:25:53;97991.59;;;4.41;100.00
72721;BME280;60835;50.974;10.322;2023-03-15T09:28:20;97997.34;;;4.35;100.00
72721;BME280;60835;50.974;10.322;2023-03-15T09:30:46;98023.88;;;4.10;100.00
72721;BME280;60835;50.974;10.322;2023-03-15T09:33:13;98026.75;;;3.96;100.00
72721;BME280;60835;50.974;10.322;2023-03-15T09:35:40;98023.72;;;3.68;100.00
72721;BME280;60835;50.974;10.322;2023-03-15T09:38:07;98026.94;;;3.61;100.00
72721;BME280;60835;50.974;10.322;2023-03-15T09:40:39;98035.78;;;3.60;100.00
72721;BME280;60835;50.974;10.322;2023-03-15T09:56:41;98067.88;;;4.16;100.00
72721;BME280;60835;50.974;10.322;2023-03-15T09:59:23;98063.78;;;4.34;100.00
72721;BME280;60835;50.974;10.322;2023-03-15T10:01:52;98064.34;;;4.69;100.00
72721;BME280;60835;50.974;10.322;2023-03-15T10:06:58;98042.09;;;4.84;100.00
72721;BME280;60835;50.974;10.322;2023-03-15T10:09:32;98048.66;;;4.58;100.00
72721;BME280;60835;50.974;10.322;2023-03-15T10:12:36;98054.63;;;4.60;100.00
72721;BME280;60835;50.974;10.322;2023-03-15T10:20:24;97983.22;;;6.08;100.00
72721;BME280;60835;50.974;10.322;2023-03-15T10:22:59;98001.09;;;7.08;100.00
72721;BME280;60835;50.974;10.322;2023-03-15T10:25:29;97983.13;;;6.94;100.00
72721;BME280;60835;50.974;10.322;2023-03-15T10:30:49;97960.34;;;7.22;100.00
72721;BME280;60835;50.974;10.322;2023-03-15T10:33:27;97967.47;;;8.98;100.00
72721;BME280;60835;50.974;10.322;2023-03-15T10:35:54;98108.06;;;8.37;100.00
72721;BME280;60835;50.974;10.322;2023-03-15T10:38:37;98160.63;;;7.56;100.00
72721;BME280;60835;50.974;10.322;2023-03-15T10:41:04;98241.88;;;7.97;100.00
72721;BME280;60835;50.974;10.322;2023-03-15T10:43:33;98289.28;;;8.16;100.00
72721;BME280;60835;50.974;10.322;2023-03-15T10:46:20;98324.63;;;6.59;100.00
72721;BME280;60835;50.974;10.322;2023-03-15T10:51:40;98233.91;;;6.74;100.00
72721;BME280;60835;50.974;10.322;2023-03-15T10:54:21;98240.50;;;6.59;100.00
72721;BME280;60835;50.974;10.322;2023-03-15T10:57:13;98229.31;;;6.27;100.00
72721;BME280;60835;50.974;10.322;2023-03-15T10:59:55;98222.69;;;6.82;100.00
72721;BME280;60835;50.974;10.322;2023-03-15T11:02:24;98239.22;;;6.13;100.00
72721;BME280;60835;50.974;10.322;2023-03-15T11:05:15;98259.44;;;7.12;100.00
72721;BME280;60835;50.974;10.322;2023-03-15T11:07:53;98269.13;;;7.21;100.00
72721;BME280;60835;50.974;10.322;2023-03-15T11:10:26;98265.72;;;6.01;100.00
72721;BME280;60835;50.974;10.322;2023-03-15T11:15:42;98076.31;;;4.51;100.00
72721;BME280;60835;50.974;10.322;2023-03-15T11:18:18;98009.69;;;4.44;100.00
72721;BME280;60835;50.974;10.322;2023-03-15T11:20:45;97997.75;;;4.51;100.00
72721;BME280;60835;50.974;10.322;2023-03-15T11:23:27;97965.50;;;5.02;100.00
72721;BME280;60835;50.974;10.322;2023-03-15T11:25:54;97958.03;;;6.44;100.00
72721;BME280;60835;50.974;10.322;2023-03-15T11:28:26;98015.09;;;7.46;100.00
72721;BME280;60835;50.974;10.322;2023-03-15T11:30:54;98072.22;;;8.80;100.00
72721;BME280;60835;50.974;10.322;2023-03-15T11:33:42;98219.00;;;7.32;100.00
72721;BME280;60835;50.974;10.322;2023-03-15T11:36:15;98163.97;;;6.62;100.00
72721;BME280;60835;50.974;10.322;2023-03-15T11:38:44;98208.31;;;6.27;100.00
72721;BME280;60835;50.974;10.322;2023-03-15T11:41:32;98161.75;;;8.81;100.00
72721;BME280;60835;50.974;10.322;2023-03-15T11:49:32;98622.63;;;9.93;100.00
72721;BME280;60835;50.974;10.322;2023-03-15T11:52:00;98764.94;;;11.16;100.00
72721;BME280;60835;50.974;10.322;2023-03-15T11:54:28;98857.88;;;10.58;100.00
72721;BME280;60835;50.974;10.322;2023-03-15T11:57:01;98881.16;;;11.91;100.00
72721;BME280;60835;50.974;10.322;2023-03-15T11:59:29;99006.03;;;11.60;100.00
72721;BME280;60835;50.974;10.322;2023-03-15T12:02:04;99019.97;;;10.60;100.00
72721;BME280;60835;50.974;10.322;2023-03-15T12:04:47;99039.47;;;10.69;100.00
72721;BME280;60835;50.974;10.322;2023-03-15T12:36:06;99070.88;;;9.44;100.00
72721;BME280;60835;50.974;10.322;2023-03-15T12:38:36;99086.22;;;11.16;100.00
72721;BME280;60835;50.974;10.322;2023-03-15T12:41:08;99075.34;;;12.02;100.00
72721;BME280;60835;50.974;10.322;2023-03-15T12:44:19;99085.72;;;13.11;100.00
72721;BME280;60835;50.974;10.322;2023-03-15T12:51:55;99081.69;;;14.18;100.00
72721;BME280;60835;50.974;10.322;2023-03-15T12:54:30;99074.34;;;11.76;99.72
72721;BME280;60835;50.974;10.322;2023-03-15T12:56:59;99092.25;;;11.65;100.00
72721;BME280;60835;50.974;10.322;2023-03-15T13:01:56;99098.28;;;13.45;100.00
72721;BME280;60835;50.974;10.322;2023-03-15T13:04:25;99088.81;;;14.68;100.00
72721;BME280;60835;50.974;10.322;2023-03-15T13:10:26;99090.53;;;14.93;98.43
72721;BME280;60835;50.974;10.322;2023-03-15T13:15:44;99074.66;;;16.03;92.72
72721;BME280;60835;50.974;10.322;2023-03-15T13:18:22;99094.19;;;15.48;89.21
72721;BME280;60835;50.974;10.322;2023-03-15T13:21:04;99097.44;;;14.53;83.62
72721;BME280;60835;50.974;10.322;2023-03-15T13:23:36;99091.84;;;15.37;81.04
72721;BME280;60835;50.974;10.322;2023-03-15T13:29:14;99096.88;;;13.66;82.61
72721;BME280;60835;50.974;10.322;2023-03-15T13:31:44;99092.06;;;13.62;86.43
72721;BME280;60835;50.974;10.322;2023-03-15T13:34:15;99107.72;;;12.68;84.71
72721;BME280;60835;50.974;10.322;2023-03-15T13:36:58;99104.78;;;13.07;94.02
72721;BME280;60835;50.974;10.322;2023-03-15T13:39:30;99106.66;;;12.44;90.67
72721;BME280;60835;50.974;10.322;2023-03-15T13:41:58;99105.31;;;11.85;90.83
72721;BME280;60835;50.974;10.322;2023-03-15T13:44:26;99124.13;;;11.26;94.01
72721;BME280;60835;50.974;10.322;2023-03-15T13:46:53;99114.81;;;10.55;93.84
72721;BME280;60835;50.974;10.322;2023-03-15T13:49:21;99113.81;;;10.37;95.70
72721;BME280;60835;50.974;10.322;2023-03-15T13:51:49;99133.38;;;10.25;94.86
72721;BME280;60835;50.974;10.322;2023-03-15T13:54:22;99138.66;;;9.34;92.93
72721;BME280;60835;50.974;10.322;2023-03-15T13:57:15;99128.47;;;9.80;91.74
72721;BME280;60835;50.974;10.322;2023-03-15T13:59:51;99139.19;;;9.28;94.57
72721;BME280;60835;50.974;10.322;2023-03-15T14:02:24;99137.16;;;9.41;96.31
72721;BME280;60835;50.974;10.322;2023-03-15T14:05:04;99145.72;;;9.54;100.00
72721;BME280;60835;50.974;10.322;2023-03-15T14:07:42;99139.31;;;9.47;98.87
72721;BME280;60835;50.974;10.322;2023-03-15T14:10:29;99148.91;;;8.75;97.62
72721;BME280;60835;50.974;10.322;2023-03-15T14:13:14;99143.81;;;9.15;98.16
72721;BME280;60835;50.974;10.322;2023-03-15T14:15:43;99137.56;;;9.37;98.68
72721;BME280;60835;50.974;10.322;2023-03-15T14:20:43;99143.66;;;8.96;91.66
72721;BME280;60835;50.974;10.322;2023-03-15T14:23:15;99126.91;;;8.86;90.66
72721;BME280;60835;50.974;10.322;2023-03-15T14:25:50;99135.03;;;8.62;88.23
72721;BME280;60835;50.974;10.322;2023-03-15T14:28:18;99148.16;;;8.41;88.96